Songa Opal — V7RO5 — position and weather

sailwx.info

Track history (hours):
 
Tides and Currents Weather Stations Pressure Air Temp Water Temp Dewpoint Dewpoint Depression Visibility Wind Speed Wind Dir Waves Ship Positions

Songa Opal

Last reported at 2015-Aug-16 06:12 UTC. Time now 2015-Aug-28 22:17 UTC.
Position N 27°17' W 115°40'.
Warning: this ship's position is 12 days out of date.

Length 144 m; draft 6.4 m.

Type: Ship. MMSI: 538003550.

Date/timePositionNaut miles runAvg speedWind from/ knotsBaromVisibWave heightAir tempDewpointWater temp
2015-Aug-16 06:12N 27°17' W 115°40'1213.0
2015-Aug-16 05:14N 27°27' W 115°49'9413.5
2015-Aug-15 22:19N 28°40' W 116°55'5313.9
2015-Aug-15 18:32N 29°21' W 117°33'3013.2
2015-Aug-15 16:17N 29°44' W 117°54'912.8
2015-Aug-15 15:33N 29°52' W 118°01'8 8.1
2015-Aug-15 14:33N 29°58' W 118°07'1313.1
2015-Aug-15 13:33N 30°08' W 118°16'1313.3
2015-Aug-15 12:33N 30°19' W 118°26'1413.7
2015-Aug-15 11:33N 30°29' W 118°36'1413.6
2015-Aug-15 10:33N 30°40' W 118°46'1313.5
2015-Aug-15 09:33N 30°50' W 118°56'1413.5
2015-Aug-15 08:33N 31°01' W 119°06'1413.4
2015-Aug-15 07:32N 31°11' W 119°15'1313.5
2015-Aug-15 06:33N 31°22' W 119°25'1313.4
2015-Aug-15 05:33N 31°32' W 119°35'1413.5
2015-Aug-15 04:33N 31°43' W 119°45'1413.6
2015-Aug-15 03:33N 31°53' W 119°55'1413.5
2015-Aug-15 02:33N 32°04' W 120°05'1413.8
2015-Aug-15 01:33N 32°15' W 120°15'1313.5
2015-Aug-15 00:33N 32°25' W 120°25'1413.7
2015-Aug-14 23:33N 32°36' W 120°35'1413.9
2015-Aug-14 22:33N 32°46' W 120°46'4113.5
2015-Aug-14 19:33N 33°18' W 121°16'1613.6
2015-Aug-14 18:22N 33°31' W 121°28'1113.6
2015-Aug-14 17:33N 33°40' W 121°36'4513.5
2015-Aug-14 14:14N 34°15' W 122°09'21213.4
2015-Aug-13 22:26N 37°31' W 123°46'1113.1
2015-Aug-13 21:33N 37°42' W 123°51'1313.2
2015-Aug-13 20:33N 37°54' W 123°57'1413.0
2015-Aug-13 19:30N 38°07' W 124°04'1212.8
2015-Aug-13 18:33N 38°18' W 124°09'1312.9
2015-Aug-13 17:33N 38°30' W 124°15'40613.0
2015-Aug-12 10:22N 45°16' W 124°42'1113.8
2015-Aug-12 09:32N 45°26' W 124°36'1313.4
2015-Aug-12 08:34N 45°39' W 124°30'1312.9
2015-Aug-12 07:33N 45°51' W 124°23'1312.6
2015-Aug-12 06:33N 46°03' W 124°17'1313.0
2015-Aug-12 05:34N 46°14' W 124°07'1010.2
2015-Aug-12 04:33N 46°11' W 123°53'1111.3
2015-Aug-12 03:34N 46°16' W 123°38'1110.5
2015-Aug-12 02:33N 46°10' W 123°25'1313.0
2015-Aug-12 01:34N 46°10' W 123°06'1312.6
2015-Aug-12 00:34N 46°02' W 122°53'1212.3
2015-Aug-11 23:34N 45°50' W 122°47'1212.0
2015-Aug-11 22:34N 45°38' W 122°47'3 2.5
2015-Aug-11 21:29N 45°36' W 122°47'0 0.0
2015-Aug-11 20:29N 45°36' W 122°47'0 0.0
2015-Aug-11 19:29N 45°36' W 122°47'0 0.0
2015-Aug-11 18:32N 45°36' W 122°47'0 0.0
2015-Aug-11 17:26N 45°36' W 122°47'0 0.0
2015-Aug-11 15:23N 45°36' W 122°47'0 0.0
2015-Aug-11 14:32N 45°36' W 122°47'0 0.0
2015-Aug-11 13:11N 45°36' W 122°47'0 0.0
2015-Aug-11 12:23N 45°36' W 122°47'0 0.0
2015-Aug-11 11:08N 45°36' W 122°47'0 0.0
2015-Aug-11 10:29N 45°36' W 122°47'0 0.0
2015-Aug-11 09:32N 45°36' W 122°47'0 0.0
2015-Aug-11 08:20N 45°36' W 122°47'0 0.0
2015-Aug-11 07:29N 45°36' W 122°47'0 0.0
2015-Aug-11 06:32N 45°36' W 122°47'0 0.0
2015-Aug-11 05:32N 45°36' W 122°47'0 0.0
2015-Aug-11 04:32N 45°36' W 122°47'0 0.0
2015-Aug-11 03:32N 45°36' W 122°47'0 0.0
2015-Aug-11 02:29N 45°36' W 122°47'0 0.0
2015-Aug-11 00:32N 45°36' W 122°47'0 0.0
2015-Aug-10 23:29N 45°36' W 122°47'0 0.0
2015-Aug-10 22:32N 45°36' W 122°47'0 0.0
2015-Aug-10 21:32N 45°36' W 122°47'0 0.0
2015-Aug-10 20:29N 45°36' W 122°47'0 0.0
2015-Aug-10 19:32N 45°36' W 122°47'0 0.0
2015-Aug-10 18:32N 45°36' W 122°47'0 0.0
2015-Aug-10 17:23N 45°36' W 122°47'0 0.0
2015-Aug-10 16:23N 45°36' W 122°47'0 0.0
2015-Aug-10 15:32N 45°36' W 122°47'0 0.0
2015-Aug-10 14:29N 45°36' W 122°47'0 0.0
2015-Aug-10 13:33N 45°36' W 122°47'4 4.2
2015-Aug-10 12:33N 45°40' W 122°46'1110.4
2015-Aug-10 11:33N 45°50' W 122°47'1010.0
2015-Aug-10 10:33N 45°60' W 122°51'1010.1
2015-Aug-10 09:33N 46°08' W 123°00'1110.9
2015-Aug-10 08:34N 46°09' W 123°16'9 9.2
2015-Aug-10 07:33N 46°15' W 123°26'1111.3
2015-Aug-10 06:33N 46°14' W 123°43'10 9.8
2015-Aug-10 05:33N 46°12' W 123°56'1111.4
2015-Aug-10 04:33N 46°12' W 124°13'1312.8
2015-Aug-10 03:33N 46°14' W 124°31'1212.0
2015-Aug-10 02:33N 46°19' W 124°47'1212.1
2015-Aug-10 01:33N 46°23' W 125°03'1212.0
2015-Aug-10 00:33N 46°28' W 125°20'1312.2
2015-Aug-09 23:31N 46°32' W 125°37'1312.2
2015-Aug-09 22:28N 46°36' W 125°55'9011.4
2015-Aug-09 14:33N 48°05' W 126°10'1211.7
2015-Aug-09 13:31N 48°12' W 125°55'1212.1
2015-Aug-09 12:33N 48°18' W 125°40'1212.2
2015-Aug-09 11:33N 48°25' W 125°25'1212.2
2015-Aug-09 10:33N 48°31' W 125°09'5212.9
2015-Aug-09 06:30N 48°17' W 123°53'1212.4
2015-Aug-09 05:32N 48°16' W 123°35'1010.6
2015-Aug-09 04:33N 48°23' W 123°24'10 9.5
2015-Aug-09 03:33N 48°29' W 123°13'1313.5
2015-Aug-09 02:33N 48°42' W 123°14'1010.4
2015-Aug-09 01:33N 48°50' W 123°03'1413.7
2015-Aug-09 00:33N 49°00' W 123°18'1212.2
2015-Aug-08 23:33N 49°12' W 123°21'1111.0
2015-Aug-08 22:33N 49°19' W 123°08'1 1.4
2015-Aug-08 21:32N 49°18' W 123°06'0 0.0
2015-Aug-08 20:32N 49°18' W 123°06'0 0.0
2015-Aug-08 19:32N 49°18' W 123°06'0 0.1
2015-Aug-08 18:32N 49°18' W 123°06'0 0.2
2015-Aug-08 17:32N 49°18' W 123°06'0 0.1
2015-Aug-08 16:32N 49°18' W 123°06'3 2.7
2015-Aug-08 15:34N 49°18' W 123°02'2 2.5
2015-Aug-08 14:34N 49°18' W 122°58'3 2.8
2015-Aug-08 13:33N 49°17' W 122°54'0 0.0
2015-Aug-08 12:33N 49°17' W 122°54'0 0.0
2015-Aug-08 11:30N 49°17' W 122°54'0 0.0
2015-Aug-08 10:33N 49°17' W 122°54'0 0.0
2015-Aug-08 09:33N 49°17' W 122°54'0 0.0
2015-Aug-08 08:33N 49°17' W 122°54'0 0.0
2015-Aug-08 07:33N 49°17' W 122°54'0 0.0
2015-Aug-08 06:33N 49°17' W 122°54'0 0.0
2015-Aug-08 05:33N 49°17' W 122°54'0 0.0
2015-Aug-08 04:33N 49°17' W 122°54'0 0.0
2015-Aug-08 03:33N 49°17' W 122°54'0 0.0
2015-Aug-08 02:33N 49°17' W 122°54'0 0.0
2015-Aug-08 01:33N 49°17' W 122°54'0 0.0
2015-Aug-08 00:33N 49°17' W 122°54'0 0.0
2015-Aug-07 23:27N 49°17' W 122°54'0 0.0
2015-Aug-07 22:33N 49°17' W 122°54'0 0.0
2015-Aug-07 21:33N 49°17' W 122°54'0 0.0
2015-Aug-07 20:33N 49°17' W 122°54'0 0.0
2015-Aug-07 19:33N 49°17' W 122°54'0 0.0
2015-Aug-07 18:33N 49°17' W 122°54'0 0.0
2015-Aug-07 17:33N 49°17' W 122°54'0 0.0
2015-Aug-07 16:33N 49°17' W 122°54'0 0.0
2015-Aug-07 15:30N 49°17' W 122°54'0 0.0
2015-Aug-07 14:33N 49°17' W 122°54'0 0.0
2015-Aug-07 13:34N 49°17' W 122°54'0 0.3
2015-Aug-07 12:33N 49°17' W 122°54'2 1.7
2015-Aug-07 11:33N 49°18' W 122°57'0 0.0
2015-Aug-07 10:33N 49°18' W 122°57'0 0.0
2015-Aug-07 09:33N 49°18' W 122°57'0 0.0
2015-Aug-07 08:33N 49°18' W 122°57'0 0.0
2015-Aug-07 07:33N 49°18' W 122°57'0 0.0
2015-Aug-07 06:33N 49°18' W 122°57'0 0.0
2015-Aug-07 05:33N 49°18' W 122°57'0 0.1
2015-Aug-07 04:33N 49°18' W 122°57'0 0.0
2015-Aug-07 03:33N 49°18' W 122°57'0 0.1
2015-Aug-07 02:33N 49°18' W 122°57'0 0.1
2015-Aug-07 01:33N 49°18' W 122°57'0 0.0
2015-Aug-07 00:33N 49°18' W 122°57'0 0.0
2015-Aug-06 23:33N 49°18' W 122°57'0 0.0
2015-Aug-06 22:33N 49°18' W 122°57'0 0.0
2015-Aug-06 21:33N 49°18' W 122°57'0 0.0
2015-Aug-06 20:33N 49°18' W 122°57'0 0.0
2015-Aug-06 19:33N 49°18' W 122°57'0 0.0
2015-Aug-06 18:33N 49°18' W 122°57'0 0.1
2015-Aug-06 17:33N 49°18' W 122°57'0 0.1
2015-Aug-06 16:33N 49°18' W 122°57'0 0.0
2015-Aug-06 15:33N 49°18' W 122°57'0 0.1
2015-Aug-06 14:33N 49°18' W 122°57'0 0.0
2015-Aug-06 13:33N 49°18' W 122°57'0 0.0
2015-Aug-06 12:33N 49°18' W 122°57'0 0.0
2015-Aug-06 11:33N 49°18' W 122°57'0 0.0
2015-Aug-06 10:33N 49°18' W 122°57'0 0.0
2015-Aug-06 09:33N 49°18' W 122°57'0 0.0
2015-Aug-06 08:33N 49°18' W 122°57'0 0.0
2015-Aug-06 07:33N 49°18' W 122°57'0 0.0
2015-Aug-06 06:33N 49°18' W 122°57'  
Track history (hours):
 
Tides and Currents Weather Stations Pressure Air Temp Water Temp Dewpoint Dewpoint Depression Visibility Wind Speed Wind Dir Waves Ship Positions

Songa Opal

Last reported at 2015-Aug-16 06:12 UTC. Time now 2015-Aug-28 22:17 UTC.
Position N 27°17' W 115°40'.
Warning: this ship's position is 12 days out of date.

Length 144 m; draft 6.4 m.

Type: Ship. MMSI: 538003550.

Date/timePositionNaut miles runAvg speedWind from/ knotsBaromVisibWave heightAir tempDewpointWater temp
2015-Aug-16 06:12N 27°17' W 115°40'1213.0
2015-Aug-16 05:14N 27°27' W 115°49'9413.5
2015-Aug-15 22:19N 28°40' W 116°55'5313.9
2015-Aug-15 18:32N 29°21' W 117°33'3013.2
2015-Aug-15 16:17N 29°44' W 117°54'912.8
2015-Aug-15 15:33N 29°52' W 118°01'8 8.1
2015-Aug-15 14:33N 29°58' W 118°07'1313.1
2015-Aug-15 13:33N 30°08' W 118°16'1313.3
2015-Aug-15 12:33N 30°19' W 118°26'1413.7
2015-Aug-15 11:33N 30°29' W 118°36'1413.6
2015-Aug-15 10:33N 30°40' W 118°46'1313.5
2015-Aug-15 09:33N 30°50' W 118°56'1413.5
2015-Aug-15 08:33N 31°01' W 119°06'1413.4
2015-Aug-15 07:32N 31°11' W 119°15'1313.5
2015-Aug-15 06:33N 31°22' W 119°25'1313.4
2015-Aug-15 05:33N 31°32' W 119°35'1413.5
2015-Aug-15 04:33N 31°43' W 119°45'1413.6
2015-Aug-15 03:33N 31°53' W 119°55'1413.5
2015-Aug-15 02:33N 32°04' W 120°05'1413.8
2015-Aug-15 01:33N 32°15' W 120°15'1313.5
2015-Aug-15 00:33N 32°25' W 120°25'1413.7
2015-Aug-14 23:33N 32°36' W 120°35'1413.9
2015-Aug-14 22:33N 32°46' W 120°46'4113.5
2015-Aug-14 19:33N 33°18' W 121°16'1613.6
2015-Aug-14 18:22N 33°31' W 121°28'1113.6
2015-Aug-14 17:33N 33°40' W 121°36'4513.5
2015-Aug-14 14:14N 34°15' W 122°09'21213.4
2015-Aug-13 22:26N 37°31' W 123°46'1113.1
2015-Aug-13 21:33N 37°42' W 123°51'1313.2
2015-Aug-13 20:33N 37°54' W 123°57'1413.0
2015-Aug-13 19:30N 38°07' W 124°04'1212.8
2015-Aug-13 18:33N 38°18' W 124°09'1312.9
2015-Aug-13 17:33N 38°30' W 124°15'40613.0
2015-Aug-12 10:22N 45°16' W 124°42'1113.8
2015-Aug-12 09:32N 45°26' W 124°36'1313.4
2015-Aug-12 08:34N 45°39' W 124°30'1312.9
2015-Aug-12 07:33N 45°51' W 124°23'1312.6
2015-Aug-12 06:33N 46°03' W 124°17'1313.0
2015-Aug-12 05:34N 46°14' W 124°07'1010.2
2015-Aug-12 04:33N 46°11' W 123°53'1111.3
2015-Aug-12 03:34N 46°16' W 123°38'1110.5
2015-Aug-12 02:33N 46°10' W 123°25'1313.0
2015-Aug-12 01:34N 46°10' W 123°06'1312.6
2015-Aug-12 00:34N 46°02' W 122°53'1212.3
2015-Aug-11 23:34N 45°50' W 122°47'1212.0
2015-Aug-11 22:34N 45°38' W 122°47'3 2.5
2015-Aug-11 21:29N 45°36' W 122°47'0 0.0
2015-Aug-11 20:29N 45°36' W 122°47'0 0.0
2015-Aug-11 19:29N 45°36' W 122°47'0 0.0
2015-Aug-11 18:32N 45°36' W 122°47'0 0.0
2015-Aug-11 17:26N 45°36' W 122°47'0 0.0
2015-Aug-11 15:23N 45°36' W 122°47'0 0.0
2015-Aug-11 14:32N 45°36' W 122°47'0 0.0
2015-Aug-11 13:11N 45°36' W 122°47'0 0.0
2015-Aug-11 12:23N 45°36' W 122°47'0 0.0
2015-Aug-11 11:08N 45°36' W 122°47'0 0.0
2015-Aug-11 10:29N 45°36' W 122°47'0 0.0
2015-Aug-11 09:32N 45°36' W 122°47'0 0.0
2015-Aug-11 08:20N 45°36' W 122°47'0 0.0
2015-Aug-11 07:29N 45°36' W 122°47'0 0.0
2015-Aug-11 06:32N 45°36' W 122°47'0 0.0
2015-Aug-11 05:32N 45°36' W 122°47'0 0.0
2015-Aug-11 04:32N 45°36' W 122°47'0 0.0
2015-Aug-11 03:32N 45°36' W 122°47'0 0.0
2015-Aug-11 02:29N 45°36' W 122°47'0 0.0
2015-Aug-11 00:32N 45°36' W 122°47'0 0.0
2015-Aug-10 23:29N 45°36' W 122°47'0 0.0
2015-Aug-10 22:32N 45°36' W 122°47'0 0.0
2015-Aug-10 21:32N 45°36' W 122°47'0 0.0
2015-Aug-10 20:29N 45°36' W 122°47'0 0.0
2015-Aug-10 19:32N 45°36' W 122°47'0 0.0
2015-Aug-10 18:32N 45°36' W 122°47'0 0.0
2015-Aug-10 17:23N 45°36' W 122°47'0 0.0
2015-Aug-10 16:23N 45°36' W 122°47'0 0.0
2015-Aug-10 15:32N 45°36' W 122°47'0 0.0
2015-Aug-10 14:29N 45°36' W 122°47'0 0.0
2015-Aug-10 13:33N 45°36' W 122°47'4 4.2
2015-Aug-10 12:33N 45°40' W 122°46'1110.4
2015-Aug-10 11:33N 45°50' W 122°47'1010.0
2015-Aug-10 10:33N 45°60' W 122°51'1010.1
2015-Aug-10 09:33N 46°08' W 123°00'1110.9
2015-Aug-10 08:34N 46°09' W 123°16'9 9.2
2015-Aug-10 07:33N 46°15' W 123°26'1111.3
2015-Aug-10 06:33N 46°14' W 123°43'10 9.8
2015-Aug-10 05:33N 46°12' W 123°56'1111.4
2015-Aug-10 04:33N 46°12' W 124°13'1312.8
2015-Aug-10 03:33N 46°14' W 124°31'1212.0
2015-Aug-10 02:33N 46°19' W 124°47'1212.1
2015-Aug-10 01:33N 46°23' W 125°03'1212.0
2015-Aug-10 00:33N 46°28' W 125°20'1312.2
2015-Aug-09 23:31N 46°32' W 125°37'1312.2
2015-Aug-09 22:28N 46°36' W 125°55'9011.4
2015-Aug-09 14:33N 48°05' W 126°10'1211.7
2015-Aug-09 13:31N 48°12' W 125°55'1212.1
2015-Aug-09 12:33N 48°18' W 125°40'1212.2
2015-Aug-09 11:33N 48°25' W 125°25'1212.2
2015-Aug-09 10:33N 48°31' W 125°09'5212.9
2015-Aug-09 06:30N 48°17' W 123°53'1212.4
2015-Aug-09 05:32N 48°16' W 123°35'1010.6
2015-Aug-09 04:33N 48°23' W 123°24'10 9.5
2015-Aug-09 03:33N 48°29' W 123°13'1313.5
2015-Aug-09 02:33N 48°42' W 123°14'1010.4
2015-Aug-09 01:33N 48°50' W 123°03'1413.7
2015-Aug-09 00:33N 49°00' W 123°18'1212.2
2015-Aug-08 23:33N 49°12' W 123°21'1111.0
2015-Aug-08 22:33N 49°19' W 123°08'1 1.4
2015-Aug-08 21:32N 49°18' W 123°06'0 0.0
2015-Aug-08 20:32N 49°18' W 123°06'0 0.0
2015-Aug-08 19:32N 49°18' W 123°06'0 0.1
2015-Aug-08 18:32N 49°18' W 123°06'0 0.2
2015-Aug-08 17:32N 49°18' W 123°06'0 0.1
2015-Aug-08 16:32N 49°18' W 123°06'3 2.7
2015-Aug-08 15:34N 49°18' W 123°02'2 2.5
2015-Aug-08 14:34N 49°18' W 122°58'3 2.8
2015-Aug-08 13:33N 49°17' W 122°54'0 0.0
2015-Aug-08 12:33N 49°17' W 122°54'0 0.0
2015-Aug-08 11:30N 49°17' W 122°54'0 0.0
2015-Aug-08 10:33N 49°17' W 122°54'0 0.0
2015-Aug-08 09:33N 49°17' W 122°54'0 0.0
2015-Aug-08 08:33N 49°17' W 122°54'0 0.0
2015-Aug-08 07:33N 49°17' W 122°54'0 0.0
2015-Aug-08 06:33N 49°17' W 122°54'0 0.0
2015-Aug-08 05:33N 49°17' W 122°54'0 0.0
2015-Aug-08 04:33N 49°17' W 122°54'0 0.0
2015-Aug-08 03:33N 49°17' W 122°54'0 0.0
2015-Aug-08 02:33N 49°17' W 122°54'0 0.0
2015-Aug-08 01:33N 49°17' W 122°54'0 0.0
2015-Aug-08 00:33N 49°17' W 122°54'0 0.0
2015-Aug-07 23:27N 49°17' W 122°54'0 0.0
2015-Aug-07 22:33N 49°17' W 122°54'0 0.0
2015-Aug-07 21:33N 49°17' W 122°54'0 0.0
2015-Aug-07 20:33N 49°17' W 122°54'0 0.0
2015-Aug-07 19:33N 49°17' W 122°54'0 0.0
2015-Aug-07 18:33N 49°17' W 122°54'0 0.0
2015-Aug-07 17:33N 49°17' W 122°54'0 0.0
2015-Aug-07 16:33N 49°17' W 122°54'0 0.0
2015-Aug-07 15:30N 49°17' W 122°54'0 0.0
2015-Aug-07 14:33N 49°17' W 122°54'0 0.0
2015-Aug-07 13:34N 49°17' W 122°54'0 0.3
2015-Aug-07 12:33N 49°17' W 122°54'2 1.7
2015-Aug-07 11:33N 49°18' W 122°57'0 0.0
2015-Aug-07 10:33N 49°18' W 122°57'0 0.0
2015-Aug-07 09:33N 49°18' W 122°57'0 0.0
2015-Aug-07 08:33N 49°18' W 122°57'0 0.0
2015-Aug-07 07:33N 49°18' W 122°57'0 0.0
2015-Aug-07 06:33N 49°18' W 122°57'0 0.0
2015-Aug-07 05:33N 49°18' W 122°57'0 0.1
2015-Aug-07 04:33N 49°18' W 122°57'0 0.0
2015-Aug-07 03:33N 49°18' W 122°57'0 0.1
2015-Aug-07 02:33N 49°18' W 122°57'0 0.1
2015-Aug-07 01:33N 49°18' W 122°57'0 0.0
2015-Aug-07 00:33N 49°18' W 122°57'0 0.0
2015-Aug-06 23:33N 49°18' W 122°57'0 0.0
2015-Aug-06 22:33N 49°18' W 122°57'0 0.0
2015-Aug-06 21:33N 49°18' W 122°57'0 0.0
2015-Aug-06 20:33N 49°18' W 122°57'0 0.0
2015-Aug-06 19:33N 49°18' W 122°57'0 0.0
2015-Aug-06 18:33N 49°18' W 122°57'0 0.1
2015-Aug-06 17:33N 49°18' W 122°57'0 0.1
2015-Aug-06 16:33N 49°18' W 122°57'0 0.0
2015-Aug-06 15:33N 49°18' W 122°57'0 0.1
2015-Aug-06 14:33N 49°18' W 122°57'0 0.0
2015-Aug-06 13:33N 49°18' W 122°57'0 0.0
2015-Aug-06 12:33N 49°18' W 122°57'0 0.0
2015-Aug-06 11:33N 49°18' W 122°57'0 0.0
2015-Aug-06 10:33N 49°18' W 122°57'0 0.0
2015-Aug-06 09:33N 49°18' W 122°57'0 0.0
2015-Aug-06 08:33N 49°18' W 122°57'0 0.0
2015-Aug-06 07:33N 49°18' W 122°57'0 0.0
2015-Aug-06 06:33N 49°18' W 122°57'  

Dump ship's entire track history